createdAt,value
2022-07-30T00:01:52.972Z,8.10
2022-07-30T00:04:38.579Z,7.80
2022-07-30T00:07:24.572Z,8.43
2022-07-30T00:10:10.668Z,8.37
2022-07-30T00:12:57.170Z,8.63
2022-07-30T00:15:43.901Z,8.20
2022-07-30T00:18:31.130Z,9.10
2022-07-30T00:21:20.179Z,8.10
2022-07-30T00:24:20.953Z,9.57
2022-07-30T00:27:08.302Z,10.57
2022-07-30T00:29:54.189Z,9.93
2022-07-30T00:32:40.155Z,9.10
2022-07-30T00:35:28.477Z,8.27
2022-07-30T00:38:15.378Z,9.17
2022-07-30T00:41:04.198Z,8.30
2022-07-30T00:43:50.126Z,7.80
2022-07-30T00:46:37.706Z,9.70
2022-07-30T00:49:23.709Z,7.93
2022-07-30T00:52:09.621Z,7.60
2022-07-30T00:54:55.438Z,7.27
2022-07-30T00:57:42.218Z,8.13
2022-07-30T01:00:27.986Z,7.30
2022-07-30T01:03:13.973Z,7.50
2022-07-30T01:06:02.173Z,7.77
2022-07-30T01:08:48.214Z,7.60
2022-07-30T01:11:36.534Z,7.70
2022-07-30T01:14:24.118Z,7.73
2022-07-30T01:17:11.557Z,7.90
2022-07-30T01:20:00.440Z,8.13
2022-07-30T01:22:51.700Z,9.17
2022-07-30T01:25:45.032Z,8.40
2022-07-30T01:28:33.153Z,7.60
2022-07-30T01:31:19.568Z,8.17
2022-07-30T01:34:06.317Z,7.63
2022-07-30T01:36:52.209Z,7.50
2022-07-30T01:39:38.174Z,8.07
2022-07-30T01:42:26.412Z,8.00
2022-07-30T01:45:13.618Z,7.50
2022-07-30T01:48:01.222Z,8.37
2022-07-30T01:50:48.838Z,8.30
2022-07-30T01:53:37.295Z,7.23
2022-07-30T01:56:25.284Z,7.57
2022-07-30T01:59:12.892Z,7.53
2022-07-30T02:01:59.165Z,7.73
2022-07-30T02:04:45.339Z,7.13
2022-07-30T02:07:36.015Z,7.43
2022-07-30T02:10:27.124Z,7.23
2022-07-30T02:13:14.667Z,7.17
2022-07-30T02:16:05.378Z,7.17
2022-07-30T02:19:10.541Z,7.00
2022-07-30T02:22:10.474Z,6.83
2022-07-30T02:24:59.943Z,8.30
2022-07-30T02:27:47.085Z,7.40
2022-07-30T02:30:37.520Z,6.87
2022-07-30T02:33:27.541Z,7.30
2022-07-30T02:36:14.250Z,7.40
2022-07-30T02:39:03.512Z,7.60
2022-07-30T02:41:50.984Z,7.20
2022-07-30T02:44:37.990Z,7.37
2022-07-30T02:47:24.195Z,7.30
2022-07-30T02:50:32.338Z,7.80
2022-07-30T02:53:23.096Z,7.00
2022-07-30T02:56:10.865Z,7.80
2022-07-30T02:58:58.899Z,8.03
2022-07-30T03:01:45.689Z,8.57
2022-07-30T03:04:32.977Z,7.67
2022-07-30T03:07:20.287Z,7.77
2022-07-30T03:10:07.440Z,7.90
2022-07-30T03:12:53.707Z,8.60
2022-07-30T03:15:44.810Z,8.30
2022-07-30T03:18:33.914Z,8.20
2022-07-30T03:21:21.646Z,7.03
2022-07-30T03:24:09.401Z,10.00
2022-07-30T03:26:55.810Z,8.40
2022-07-30T03:29:43.752Z,7.73
2022-07-30T03:32:33.624Z,7.50
2022-07-30T03:35:21.952Z,8.90
2022-07-30T03:38:08.067Z,8.97
2022-07-30T03:40:54.036Z,7.67
2022-07-30T03:43:41.748Z,8.93
2022-07-30T03:46:28.879Z,8.20
2022-07-30T03:49:14.895Z,7.27
2022-07-30T03:52:06.084Z,9.33
2022-07-30T03:54:53.056Z,8.70
2022-07-30T03:57:57.415Z,9.07
2022-07-30T04:00:49.046Z,8.30
2022-07-30T04:03:35.028Z,7.23
2022-07-30T04:06:23.402Z,8.33
2022-07-30T04:09:13.914Z,9.60
2022-07-30T04:11:59.705Z,9.47
2022-07-30T04:14:53.373Z,11.20
2022-07-30T04:17:54.388Z,9.53
2022-07-30T04:20:45.558Z,9.73
2022-07-30T04:23:32.047Z,9.70
2022-07-30T04:26:38.686Z,9.47
2022-07-30T04:29:25.039Z,10.13
2022-07-30T04:32:13.948Z,9.33
2022-07-30T04:35:51.312Z,10.50
2022-07-30T04:38:37.119Z,9.20
2022-07-30T04:41:23.046Z,10.93
2022-07-30T04:44:27.831Z,9.50
2022-07-30T04:47:34.591Z,9.70
2022-07-30T04:50:42.608Z,10.53
2022-07-30T04:53:36.884Z,11.77
2022-07-30T04:56:24.150Z,10.60
2022-07-30T04:59:11.953Z,10.10
2022-07-30T05:02:00.269Z,8.93
2022-07-30T05:04:46.920Z,9.63
2022-07-30T05:07:33.672Z,9.63
2022-07-30T05:10:20.868Z,10.53
2022-07-30T05:13:11.602Z,10.43
2022-07-30T05:15:59.431Z,11.60
2022-07-30T05:18:48.372Z,11.33
2022-07-30T05:21:34.729Z,10.40
2022-07-30T05:24:21.919Z,10.10
2022-07-30T05:27:13.060Z,9.17
2022-07-30T05:30:01.292Z,9.63
2022-07-30T05:32:54.247Z,10.00
2022-07-30T05:35:42.144Z,9.17
2022-07-30T05:38:29.600Z,9.03
2022-07-30T05:41:43.252Z,7.90
2022-07-30T05:44:34.250Z,8.27
2022-07-30T05:47:21.116Z,10.77
2022-07-30T05:50:10.907Z,11.03
2022-07-30T05:52:58.357Z,9.23
2022-07-30T05:56:06.908Z,9.40
2022-07-30T05:59:14.304Z,9.53
2022-07-30T06:02:19.350Z,11.07
2022-07-30T06:05:22.505Z,12.60
2022-07-30T06:08:08.577Z,12.37
2022-07-30T06:10:56.594Z,12.13
2022-07-30T06:13:44.433Z,17.30
2022-07-30T06:16:32.327Z,15.00
2022-07-30T06:19:19.743Z,13.60
2022-07-30T06:22:07.238Z,13.40
2022-07-30T06:24:58.573Z,15.13
2022-07-30T06:27:48.082Z,13.40
2022-07-30T06:30:33.870Z,13.57
2022-07-30T06:33:20.413Z,14.00
2022-07-30T06:36:08.008Z,13.40
2022-07-30T06:39:09.461Z,12.10
2022-07-30T06:42:18.582Z,13.23
2022-07-30T06:45:23.055Z,11.97
2022-07-30T06:48:28.229Z,13.43
2022-07-30T06:51:14.168Z,12.50
2022-07-30T06:54:00.003Z,13.00
2022-07-30T06:56:56.184Z,12.97
2022-07-30T06:59:56.916Z,14.80
2022-07-30T07:02:55.202Z,15.03
2022-07-30T07:05:53.866Z,14.37
2022-07-30T07:08:41.381Z,15.33
2022-07-30T07:11:31.076Z,13.77
2022-07-30T07:14:19.703Z,15.07
2022-07-30T07:17:07.228Z,14.33
2022-07-30T07:20:12.616Z,11.77
2022-07-30T07:23:09.475Z,11.60
2022-07-30T07:25:59.888Z,14.03
2022-07-30T07:28:46.236Z,12.20
2022-07-30T07:32:05.314Z,9.40
2022-07-30T07:34:39.224Z,10.97
2022-07-30T07:37:25.092Z,11.80
2022-07-30T07:40:11.400Z,11.60
2022-07-30T07:43:06.439Z,12.40
2022-07-30T07:45:53.467Z,11.23
2022-07-30T07:48:40.253Z,12.63
2022-07-30T07:51:48.287Z,12.40
2022-07-30T07:54:37.491Z,12.67
2022-07-30T07:57:25.539Z,12.63
2022-07-30T08:00:15.483Z,11.90
2022-07-30T08:03:07.564Z,13.17
2022-07-30T08:06:05.894Z,12.07
2022-07-30T08:09:08.985Z,12.00
2022-07-30T08:12:27.735Z,13.00
2022-07-30T08:15:13.782Z,12.47
2022-07-30T08:18:30.993Z,15.00
2022-07-30T08:21:29.696Z,16.17
2022-07-30T08:24:17.212Z,12.00
2022-07-30T08:27:03.650Z,9.87
2022-07-30T08:29:49.503Z,11.27
2022-07-30T08:32:35.970Z,10.97
2022-07-30T08:35:23.351Z,12.40
2022-07-30T08:38:11.259Z,11.90
2022-07-30T08:40:57.602Z,11.03
2022-07-30T08:43:43.878Z,13.80
2022-07-30T08:46:32.988Z,12.87
2022-07-30T08:49:40.842Z,13.43
2022-07-30T08:52:27.453Z,13.07
2022-07-30T08:55:21.272Z,13.37
2022-07-30T08:58:15.591Z,15.30
2022-07-30T09:01:05.201Z,11.73
2022-07-30T09:03:51.004Z,13.27
2022-07-30T09:06:37.865Z,11.70
2022-07-30T09:09:24.642Z,13.23
2022-07-30T09:12:29.951Z,11.10
2022-07-30T09:15:18.094Z,14.83
2022-07-30T09:18:04.837Z,11.10
2022-07-30T09:20:54.104Z,10.77
2022-07-30T09:23:40.373Z,10.90
2022-07-30T09:26:59.449Z,11.00
2022-07-30T09:30:04.900Z,11.20
2022-07-30T09:33:09.376Z,10.17
2022-07-30T09:36:19.123Z,9.83
2022-07-30T09:39:36.838Z,10.27
2022-07-30T09:42:41.579Z,10.90
2022-07-30T09:45:34.827Z,12.83
2022-07-30T09:48:26.709Z,11.10
2022-07-30T09:51:16.015Z,10.90
2022-07-30T09:54:02.288Z,8.97
2022-07-30T09:56:54.073Z,10.20
2022-07-30T09:59:40.096Z,11.33
2022-07-30T10:02:33.468Z,11.47
2022-07-30T10:05:32.068Z,9.90
2022-07-30T10:08:18.941Z,10.23
2022-07-30T10:11:09.557Z,10.27
2022-07-30T10:13:56.779Z,10.73
2022-07-30T10:16:43.991Z,10.70
2022-07-30T10:19:39.892Z,11.37
2022-07-30T10:22:47.623Z,9.77
2022-07-30T10:25:49.325Z,9.67
2022-07-30T10:29:05.948Z,9.80
2022-07-30T10:31:54.197Z,11.53
2022-07-30T10:34:42.641Z,9.13
2022-07-30T10:37:29.257Z,9.40
2022-07-30T10:40:18.532Z,8.53
2022-07-30T10:43:16.023Z,7.87
2022-07-30T10:46:27.157Z,8.53
2022-07-30T10:49:19.023Z,8.50
2022-07-30T10:52:08.183Z,6.90
2022-07-30T10:54:54.203Z,8.80
2022-07-30T10:58:00.894Z,9.83
2022-07-30T11:00:53.596Z,9.50
2022-07-30T11:03:41.128Z,8.03
2022-07-30T11:06:31.363Z,7.73
2022-07-30T11:09:37.245Z,8.13
2022-07-30T11:12:43.922Z,8.30
2022-07-30T11:15:53.728Z,7.50
2022-07-30T11:22:31.575Z,8.43
2022-07-30T11:25:49.969Z,7.00
2022-07-30T11:28:42.277Z,6.20
2022-07-30T11:31:54.813Z,6.77
2022-07-30T11:34:37.466Z,10.00
2022-07-30T11:37:32.161Z,9.60
2022-07-30T11:40:26.281Z,7.13
2022-07-30T11:43:18.581Z,7.40
2022-07-30T11:46:04.877Z,7.13
2022-07-30T11:48:57.321Z,7.17
2022-07-30T11:51:47.605Z,8.50
2022-07-30T11:54:35.858Z,11.70
2022-07-30T11:57:21.768Z,7.67
2022-07-30T12:00:11.650Z,7.00
2022-07-30T12:03:03.894Z,7.53
2022-07-30T12:05:52.575Z,6.43
2022-07-30T12:08:48.899Z,6.97
2022-07-30T12:11:36.765Z,6.53
2022-07-30T12:14:24.823Z,8.13
2022-07-30T12:17:15.274Z,6.97
2022-07-30T12:20:01.148Z,6.77
2022-07-30T12:22:48.411Z,6.10
2022-07-30T12:25:38.200Z,6.50
2022-07-30T12:28:35.042Z,6.60
2022-07-30T12:31:20.954Z,5.97
2022-07-30T12:34:19.623Z,6.13
2022-07-30T12:37:09.759Z,7.07
2022-07-30T12:40:15.147Z,5.80
2022-07-30T12:43:01.511Z,6.90
2022-07-30T12:45:51.859Z,6.63
2022-07-30T12:48:49.316Z,7.60
2022-07-30T12:51:37.987Z,7.10
2022-07-30T12:54:29.864Z,6.67
2022-07-30T12:57:15.544Z,5.80
2022-07-30T13:00:07.088Z,6.43
2022-07-30T13:02:54.022Z,6.50
2022-07-30T13:05:45.282Z,7.93
2022-07-30T13:08:50.460Z,7.37
2022-07-30T13:11:41.120Z,6.40
2022-07-30T13:14:26.925Z,6.77
2022-07-30T13:17:13.720Z,6.50
2022-07-30T13:20:01.216Z,6.33
2022-07-30T13:22:50.690Z,7.43
2022-07-30T13:25:38.922Z,9.63
2022-07-30T13:28:26.879Z,7.60
2022-07-30T13:31:13.434Z,7.70
2022-07-30T13:33:59.453Z,6.90
2022-07-30T13:36:47.308Z,6.90
2022-07-30T13:39:33.440Z,7.00
2022-07-30T13:42:19.078Z,6.30
2022-07-30T13:45:08.284Z,6.93
2022-07-30T13:47:54.854Z,6.57
2022-07-30T13:50:43.322Z,7.67
2022-07-30T13:53:29.530Z,7.30
2022-07-30T13:56:15.493Z,7.17
2022-07-30T13:59:01.423Z,7.10
2022-07-30T14:01:47.398Z,7.20
2022-07-30T14:04:34.456Z,7.30
2022-07-30T14:07:20.246Z,7.77
2022-07-30T14:10:07.228Z,7.23
2022-07-30T14:12:59.606Z,6.73
2022-07-30T14:15:45.840Z,7.53
2022-07-30T14:18:34.513Z,6.47
2022-07-30T14:21:20.483Z,6.37
2022-07-30T14:24:13.290Z,5.97
2022-07-30T14:27:01.891Z,6.87
2022-07-30T14:29:50.406Z,7.07
2022-07-30T14:32:37.745Z,6.50
2022-07-30T14:35:23.838Z,6.50
2022-07-30T14:38:10.361Z,6.03
2022-07-30T14:40:58.105Z,6.03
2022-07-30T14:43:43.728Z,6.60
2022-07-30T14:49:34.826Z,6.40
2022-07-30T14:52:21.291Z,5.97
2022-07-30T14:55:09.811Z,5.73
2022-07-30T14:57:59.435Z,7.17
2022-07-30T15:00:48.543Z,5.90
2022-07-30T15:03:35.721Z,5.30
2022-07-30T15:06:21.657Z,6.40
2022-07-30T15:09:09.640Z,6.13
2022-07-30T15:12:10.977Z,6.93
2022-07-30T15:14:57.337Z,5.53
2022-07-30T15:17:43.500Z,6.07
2022-07-30T15:20:30.403Z,5.90
2022-07-30T15:23:16.547Z,7.17
2022-07-30T15:26:02.478Z,5.70
2022-07-30T15:28:48.307Z,6.40
2022-07-30T15:31:35.174Z,6.20
2022-07-30T15:34:21.071Z,7.30
2022-07-30T15:37:07.142Z,7.53
2022-07-30T15:39:55.435Z,6.30
2022-07-30T15:42:42.571Z,5.50
2022-07-30T15:45:28.543Z,5.50
2022-07-30T15:48:41.650Z,6.10
2022-07-30T15:51:34.262Z,5.17
2022-07-30T15:54:27.051Z,4.80
2022-07-30T15:57:12.963Z,5.00
2022-07-30T16:00:05.877Z,4.20
2022-07-30T16:02:59.687Z,5.43
2022-07-30T16:05:51.946Z,5.57
2022-07-30T16:08:38.606Z,5.33
2022-07-30T16:11:27.668Z,6.20
2022-07-30T16:14:20.136Z,4.60
2022-07-30T16:17:13.642Z,4.97
2022-07-30T16:20:00.303Z,6.70
2022-07-30T16:22:47.911Z,5.10
2022-07-30T16:25:34.171Z,5.80
2022-07-30T16:28:23.820Z,5.23
2022-07-30T16:31:10.425Z,5.30
2022-07-30T16:33:56.971Z,4.90
2022-07-30T16:36:43.258Z,4.47
2022-07-30T16:39:29.025Z,4.30
2022-07-30T16:42:14.910Z,4.57
2022-07-30T16:45:01.239Z,4.53
2022-07-30T16:47:48.840Z,5.00
2022-07-30T16:50:34.666Z,4.43
2022-07-30T16:53:22.461Z,4.80
2022-07-30T16:56:08.793Z,4.43
2022-07-30T16:58:55.633Z,4.27
2022-07-30T17:01:44.994Z,4.40
2022-07-30T17:04:30.744Z,4.53
2022-07-30T17:07:16.685Z,4.27
2022-07-30T17:10:03.884Z,4.63
2022-07-30T17:12:51.428Z,4.13
2022-07-30T17:15:37.223Z,3.87
2022-07-30T17:18:24.959Z,4.23
2022-07-30T17:21:10.987Z,3.73
2022-07-30T17:23:56.890Z,4.17
2022-07-30T17:26:44.325Z,3.90
2022-07-30T17:29:30.381Z,3.40
2022-07-30T17:32:17.192Z,4.20
2022-07-30T17:35:02.933Z,3.77
2022-07-30T17:37:48.970Z,3.30
2022-07-30T17:40:35.872Z,6.13
2022-07-30T17:43:21.489Z,2.67
2022-07-30T17:46:07.471Z,3.13
2022-07-30T17:48:53.669Z,2.40
2022-07-30T17:51:39.910Z,2.83
2022-07-30T17:54:27.612Z,2.70
2022-07-30T17:57:15.098Z,3.90
2022-07-30T18:00:08.387Z,3.37
2022-07-30T18:02:54.323Z,3.23
2022-07-30T18:05:41.239Z,2.77
2022-07-30T18:08:32.330Z,3.50
2022-07-30T18:11:18.137Z,3.37
2022-07-30T18:14:03.937Z,4.30
2022-07-30T18:16:49.631Z,4.17
2022-07-30T18:19:35.464Z,8.40
2022-07-30T18:22:29.294Z,5.63
2022-07-30T18:25:19.060Z,3.43
2022-07-30T18:28:05.302Z,4.00
2022-07-30T18:30:51.234Z,4.43
2022-07-30T18:33:36.969Z,4.40
2022-07-30T18:36:22.810Z,4.20
2022-07-30T18:39:08.396Z,5.93
2022-07-30T18:41:54.376Z,7.60
2022-07-30T18:44:40.100Z,6.03
2022-07-30T18:47:25.966Z,5.93
2022-07-30T18:50:12.908Z,6.00
2022-07-30T18:52:58.615Z,5.07
2022-07-30T18:55:45.066Z,6.37
2022-07-30T18:58:32.269Z,5.40
2022-07-30T19:01:18.429Z,7.20
2022-07-30T19:04:04.354Z,5.70
2022-07-30T19:06:51.455Z,6.93
2022-07-30T19:09:38.580Z,4.90
2022-07-30T19:12:27.396Z,4.77
2022-07-30T19:15:14.285Z,5.78
2022-07-30T19:18:00.321Z,5.80
2022-07-30T19:20:46.339Z,5.43
2022-07-30T19:23:32.216Z,5.87
2022-07-30T19:26:18.559Z,8.77
2022-07-30T19:29:07.555Z,5.07
2022-07-30T19:31:53.583Z,6.30
2022-07-30T19:34:39.857Z,6.03
2022-07-30T19:37:25.467Z,8.63
2022-07-30T19:40:12.646Z,6.63
2022-07-30T19:43:02.155Z,8.40
2022-07-30T19:45:52.420Z,8.60
2022-07-30T19:48:38.950Z,7.40
2022-07-30T19:51:25.404Z,6.30
2022-07-30T19:54:30.963Z,7.23
2022-07-30T19:57:17.065Z,6.60
2022-07-30T20:00:06.812Z,7.27
2022-07-30T20:02:58.811Z,6.50
2022-07-30T20:05:58.538Z,7.53
2022-07-30T20:08:45.610Z,6.90
2022-07-30T20:11:36.559Z,6.87
2022-07-30T20:14:23.181Z,6.30
2022-07-30T20:17:10.544Z,6.80
2022-07-30T20:19:57.966Z,6.50
2022-07-30T20:22:45.289Z,7.47
2022-07-30T20:25:37.315Z,7.07
2022-07-30T20:28:24.578Z,7.13
2022-07-30T20:31:12.008Z,7.90
2022-07-30T20:33:58.266Z,7.30
2022-07-30T20:36:44.022Z,6.43
2022-07-30T20:39:30.711Z,5.70
2022-07-30T20:42:18.659Z,6.37
2022-07-30T20:45:08.401Z,7.40
2022-07-30T20:47:56.724Z,7.73
2022-07-30T20:50:44.731Z,6.50
2022-07-30T20:53:33.623Z,6.23
2022-07-30T20:56:22.625Z,10.57
2022-07-30T20:59:09.541Z,8.10
2022-07-30T21:01:59.500Z,6.20
2022-07-30T21:07:52.848Z,5.80
2022-07-30T21:10:39.120Z,9.00
2022-07-30T21:13:26.251Z,9.40
2022-07-30T21:16:15.734Z,5.87
2022-07-30T21:19:03.590Z,6.87
2022-07-30T21:21:50.227Z,5.90
2022-07-30T21:24:36.724Z,7.47
2022-07-30T21:27:22.963Z,5.70
2022-07-30T21:30:15.837Z,5.87
2022-07-30T21:33:01.587Z,5.57
2022-07-30T21:35:47.362Z,6.63
2022-07-30T21:38:34.521Z,6.40
2022-07-30T21:41:40.399Z,7.03
2022-07-30T21:44:26.764Z,7.33
2022-07-30T21:47:13.235Z,8.37
2022-07-30T21:49:59.023Z,7.57
2022-07-30T21:52:45.244Z,6.90
2022-07-30T21:55:33.395Z,7.37
2022-07-30T21:58:25.794Z,8.03
2022-07-30T22:01:17.201Z,6.87
2022-07-30T22:04:07.754Z,7.00
2022-07-30T22:06:54.399Z,7.10
2022-07-30T22:09:40.875Z,6.73
2022-07-30T22:12:29.176Z,5.67
2022-07-30T22:15:17.666Z,6.77
2022-07-30T22:18:04.502Z,5.90
2022-07-30T22:20:50.769Z,7.00
2022-07-30T22:23:37.592Z,6.47
2022-07-30T22:26:23.771Z,6.17
2022-07-30T22:29:12.556Z,5.83
2022-07-30T22:31:58.747Z,5.73
2022-07-30T22:34:47.197Z,7.83
2022-07-30T22:40:39.753Z,6.37
2022-07-30T22:43:35.470Z,6.13
2022-07-30T22:46:31.111Z,6.37
2022-07-30T22:49:23.592Z,6.90
2022-07-30T22:52:27.288Z,6.97
2022-07-30T22:55:17.283Z,6.63
2022-07-30T22:58:08.451Z,7.93
2022-07-30T23:00:55.468Z,8.10
2022-07-30T23:03:42.177Z,6.33
2022-07-30T23:06:27.865Z,7.00
2022-07-30T23:09:16.209Z,8.50
2022-07-30T23:12:02.206Z,8.67
2022-07-30T23:12:26.731Z,6.83
2022-07-30T23:12:28.966Z,6.40
2022-07-30T23:14:49.017Z,8.10
2022-07-30T23:17:34.900Z,7.47
2022-07-30T23:20:21.726Z,7.47
2022-07-30T23:23:07.787Z,6.07
2022-07-30T23:25:53.603Z,7.37
2022-07-30T23:28:39.398Z,8.57
2022-07-30T23:31:27.018Z,6.70
2022-07-30T23:34:13.094Z,7.27
2022-07-30T23:37:03.480Z,7.60
2022-07-30T23:39:49.498Z,7.73
2022-07-30T23:42:35.426Z,6.90
2022-07-30T23:45:22.545Z,6.90
2022-07-30T23:48:10.580Z,7.50
2022-07-30T23:50:56.548Z,7.30
2022-07-30T23:53:42.210Z,7.43
2022-07-30T23:56:28.178Z,6.20
2022-07-30T23:59:15.416Z,6.43
